Flag for Peru

Past Weather in 13°09'18.5"S, 72°31'28.3"W, Peru — Yesterday and Last 2 Weeks

Currently: 54 °F. Passing clouds. (Weather station: Cuzco Airport, Peru). See more current weather

Past Weather in 13°09'18.5"S, 72°31'28.3"W — Graph

°F

13°09'18.5"S, 72°31'28.3"W Temperature Yesterday

Maximum temperature yesterday: 68 °F (at 1:30 pm)
Minimum temperature yesterday: 48 °F (at 6:00 am)
Average temperature yesterday: 57 °F

High & Low Weather Summary for the Past Weeks

 TemperatureHumidityPressure
High73 °F (Feb 17, 1:00 pm)100% (Feb 24, 4:00 am)30.63 "Hg (Feb 24, 4:00 am)
Low45 °F (Feb 22, 4:00 am)33% (Feb 16, 4:30 pm)30.24 "Hg (Feb 21, 3:30 pm)
Average58 °F67%30.46 "Hg
* Reported Feb 13 10:30 pm — Feb 28 10:30 pm, 13°09'18.5"S, 72°31'28.3"W. Weather by CustomWeather, © 2024

Note: Actual official high and low records may vary slightly from our data, if they occured in-between our weather recording intervals... More about our weather records

13°09'18.5"S, 72°31'28.3"W Weather History for the Previous 24 Hours

Scroll right to see more
 ConditionsComfort  
Time TempWeatherWind HumidityBarometerVisibility
10:30 pm
Wed, Feb 28
55 °FPartly cloudy.1 mph67%30.54 "HgN/A
9:30 pm55 °FPartly cloudy.3 mph67%30.51 "HgN/A
9:00 pm57 °FPartly cloudy.5 mph63%30.51 "HgN/A
8:30 pm55 °FPartly cloudy.7 mph67%30.48 "HgN/A
8:00 pm57 °FPartly cloudy.8 mph59%30.48 "HgN/A
7:30 pm57 °FPartly cloudy.5 mph63%30.45 "HgN/A
7:00 pm59 °FMostly cloudy.7 mph55%30.42 "HgN/A
6:30 pm59 °FPartly cloudy.7 mph55%30.42 "HgN/A
6:00 pm61 °FBroken clouds.9 mph52%30.39 "HgN/A
5:30 pm61 °FBroken clouds.12 mph55%30.36 "HgN/A
5:00 pm63 °FBroken clouds.8 mph52%30.36 "HgN/A
4:30 pm63 °FBroken clouds.9 mph49%30.36 "HgN/A
4:00 pm64 °FBroken clouds.10 mph46%30.36 "HgN/A
3:30 pm68 °FScattered clouds.10 mph38%30.36 "HgN/A
3:00 pm66 °FScattered clouds.10 mph43%30.36 "HgN/A
2:30 pm66 °FScattered clouds.10 mph40%30.39 "HgN/A
2:00 pm64 °FScattered clouds.8 mph43%30.42 "HgN/A
1:30 pm66 °FScattered clouds.9 mph46%30.42 "HgN/A
1:00 pm64 °FPartly sunny.8 mph46%30.45 "HgN/A
12:30 pm63 °FBroken clouds.9 mph49%30.45 "HgN/A
12:00 pm63 °FScattered showers. Broken clouds.9 mph49%30.48 "HgN/A
11:30 am63 °FScattered showers. Broken clouds.2 mph52%30.48 "HgN/A
11:00 am63 °FBroken clouds.5 mph52%30.51 "HgN/A
10:30 am61 °FBroken clouds.5 mph55%30.51 "HgN/A
10:00 am59 °FBroken clouds.2 mph59%30.51 "HgN/A
9:30 am59 °FBroken clouds.3 mph63%30.51 "HgN/A
9:00 am57 °FScattered showers. Broken clouds.3 mph67%30.51 "HgN/A
8:30 am55 °FBroken clouds.2 mph72%30.51 "HgN/A
8:00 am55 °FBroken clouds.1 mph67%30.51 "HgN/A
7:30 am55 °FBroken clouds.2 mph72%30.51 "HgN/A
7:00 am52 °FBroken clouds.5 mph82%30.48 "HgN/A
6:30 am50 °FBroken clouds.2 mph88%30.48 "HgN/A
6:00 am50 °FBroken clouds.3 mph88%30.48 "HgN/A
5:30 am52 °FPartly cloudy.3 mph82%30.45 "HgN/A
5:00 am52 °FPartly cloudy.3 mph82%30.45 "HgN/A
4:00 am52 °FPartly cloudy.5 mph82%30.45 "HgN/A
3:00 am52 °FPartly cloudy.5 mph82%30.45 "HgN/A
2:00 am54 °FPartly cloudy.3 mph77%30.45 "HgN/A
1:00 am54 °FPartly cloudy.2 mph77%30.48 "HgN/A
12:00 am54 °FPartly cloudy.3 mph77%30.48 "HgN/A
11:00 pm
Tue, Feb 27
54 °FPartly cloudy.3 mph77%30.48 "HgN/A
Weather by CustomWeather, © 2024

See weather overview